sensor_id;sensor_type;location;lat;lon;timestamp;temperature;humidity
22984;DHT22;11658;48.908;9.140;2023-03-20T04:01:51;9.10;99.90
22984;DHT22;11658;48.908;9.140;2023-03-20T04:04:19;11.00;99.90
22984;DHT22;11658;48.908;9.140;2023-03-20T04:06:46;9.10;99.90
22984;DHT22;11658;48.908;9.140;2023-03-20T04:09:12;9.50;99.90
22984;DHT22;11658;48.908;9.140;2023-03-20T04:11:38;9.10;99.90
22984;DHT22;11658;48.908;9.140;2023-03-20T04:14:04;8.90;99.90
22984;DHT22;11658;48.908;9.140;2023-03-20T04:16:30;10.20;99.90
22984;DHT22;11658;48.908;9.140;2023-03-20T04:18:55;9.30;99.90
22984;DHT22;11658;48.908;9.140;2023-03-20T04:21:21;9.50;99.90
22984;DHT22;11658;48.908;9.140;2023-03-20T04:23:47;10.80;99.90
22984;DHT22;11658;48.908;9.140;2023-03-20T04:26:14;9.10;99.90
22984;DHT22;11658;48.908;9.140;2023-03-20T04:28:40;9.00;99.90
22984;DHT22;11658;48.908;9.140;2023-03-20T04:31:05;8.90;99.90
22984;DHT22;11658;48.908;9.140;2023-03-20T04:33:31;8.90;99.90
22984;DHT22;11658;48.908;9.140;2023-03-20T04:35:57;10.40;99.90
22984;DHT22;11658;48.908;9.140;2023-03-20T04:38:24;8.60;99.90
22984;DHT22;11658;48.908;9.140;2023-03-20T04:40:50;10.00;99.90
22984;DHT22;11658;48.908;9.140;2023-03-20T04:43:16;9.00;99.90
22984;DHT22;11658;48.908;9.140;2023-03-20T04:45:42;10.00;99.90
22984;DHT22;11658;48.908;9.140;2023-03-20T04:48:08;9.10;99.90
22984;DHT22;11658;48.908;9.140;2023-03-20T04:50:34;11.30;99.90
22984;DHT22;11658;48.908;9.140;2023-03-20T04:52:59;9.80;99.90
22984;DHT22;11658;48.908;9.140;2023-03-20T04:55:25;10.80;99.90
22984;DHT22;11658;48.908;9.140;2023-03-20T04:57:51;10.30;99.90
22984;DHT22;11658;48.908;9.140;2023-03-20T05:00:17;9.20;99.90
22984;DHT22;11658;48.908;9.140;2023-03-20T05:02:43;9.00;99.90
22984;DHT22;11658;48.908;9.140;2023-03-20T05:05:08;10.10;99.90
22984;DHT22;11658;48.908;9.140;2023-03-20T05:07:34;10.60;99.90
22984;DHT22;11658;48.908;9.140;2023-03-20T05:10:01;10.70;99.90
22984;DHT22;11658;48.908;9.140;2023-03-20T05:12:26;9.30;99.90
22984;DHT22;11658;48.908;9.140;2023-03-20T05:14:52;9.20;99.90
22984;DHT22;11658;48.908;9.140;2023-03-20T05:17:22;9.20;99.90
22984;DHT22;11658;48.908;9.140;2023-03-20T05:19:48;9.30;99.90
22984;DHT22;11658;48.908;9.140;2023-03-20T05:22:15;10.10;99.90
22984;DHT22;11658;48.908;9.140;2023-03-20T05:24:41;10.10;99.90
22984;DHT22;11658;48.908;9.140;2023-03-20T05:27:06;9.10;99.90
22984;DHT22;11658;48.908;9.140;2023-03-20T05:29:32;9.60;99.90
22984;DHT22;11658;48.908;9.140;2023-03-20T05:31:57;8.40;99.90
22984;DHT22;11658;48.908;9.140;2023-03-20T05:34:23;9.10;99.90
22984;DHT22;11658;48.908;9.140;2023-03-20T05:36:49;9.10;99.90
22984;DHT22;11658;48.908;9.140;2023-03-20T05:39:14;9.10;99.90
22984;DHT22;11658;48.908;9.140;2023-03-20T05:41:40;9.10;99.90
22984;DHT22;11658;48.908;9.140;2023-03-20T05:44:06;10.60;99.90
22984;DHT22;11658;48.908;9.140;2023-03-20T05:46:32;10.40;99.90
22984;DHT22;11658;48.908;9.140;2023-03-20T05:48:57;9.30;99.90
22984;DHT22;11658;48.908;9.140;2023-03-20T05:51:23;10.10;99.90
22984;DHT22;11658;48.908;9.140;2023-03-20T05:53:49;9.10;99.90
22984;DHT22;11658;48.908;9.140;2023-03-20T05:56:15;9.10;99.90
22984;DHT22;11658;48.908;9.140;2023-03-20T05:58:41;10.00;99.90
22984;DHT22;11658;48.908;9.140;2023-03-20T06:01:07;10.40;99.90
22984;DHT22;11658;48.908;9.140;2023-03-20T06:03:32;9.20;99.90
22984;DHT22;11658;48.908;9.140;2023-03-20T06:05:58;10.10;99.90
22984;DHT22;11658;48.908;9.140;2023-03-20T06:08:24;9.30;99.90
22984;DHT22;11658;48.908;9.140;2023-03-20T06:10:50;9.30;99.90
22984;DHT22;11658;48.908;9.140;2023-03-20T06:13:16;9.40;99.90
22984;DHT22;11658;48.908;9.140;2023-03-20T06:15:41;9.40;99.90
22984;DHT22;11658;48.908;9.140;2023-03-20T06:18:07;9.40;99.90
22984;DHT22;11658;48.908;9.140;2023-03-20T06:20:32;9.40;99.90
22984;DHT22;11658;48.908;9.140;2023-03-20T06:22:58;9.50;99.90
22984;DHT22;11658;48.908;9.140;2023-03-20T06:25:24;9.60;99.90
22984;DHT22;11658;48.908;9.140;2023-03-20T06:27:50;9.60;99.90
22984;DHT22;11658;48.908;9.140;2023-03-20T06:30:16;9.60;99.90
22984;DHT22;11658;48.908;9.140;2023-03-20T06:32:42;9.60;99.90
22984;DHT22;11658;48.908;9.140;2023-03-20T06:35:08;9.80;99.90
22984;DHT22;11658;48.908;9.140;2023-03-20T06:37:35;10.00;99.90
22984;DHT22;11658;48.908;9.140;2023-03-20T06:40:02;10.00;99.90
22984;DHT22;11658;48.908;9.140;2023-03-20T06:42:28;10.10;99.90
22984;DHT22;11658;48.908;9.140;2023-03-20T06:44:54;10.00;99.90
22984;DHT22;11658;48.908;9.140;2023-03-20T06:47:21;10.10;99.90
22984;DHT22;11658;48.908;9.140;2023-03-20T06:49:46;10.30;99.90
22984;DHT22;11658;48.908;9.140;2023-03-20T06:52:15;10.40;99.90
22984;DHT22;11658;48.908;9.140;2023-03-20T06:54:41;10.40;99.90
22984;DHT22;11658;48.908;9.140;2023-03-20T06:57:07;10.30;99.90
22984;DHT22;11658;48.908;9.140;2023-03-20T06:59:33;10.60;99.90
22984;DHT22;11658;48.908;9.140;2023-03-20T07:01:58;10.80;99.90
22984;DHT22;11658;48.908;9.140;2023-03-20T07:04:24;10.90;99.90
22984;DHT22;11658;48.908;9.140;2023-03-20T07:06:50;11.10;99.90
22984;DHT22;11658;48.908;9.140;2023-03-20T07:09:16;11.10;99.90
22984;DHT22;11658;48.908;9.140;2023-03-20T07:11:42;11.20;99.90
22984;DHT22;11658;48.908;9.140;2023-03-20T07:14:08;11.20;99.90
22984;DHT22;11658;48.908;9.140;2023-03-20T07:16:33;11.20;99.90
22984;DHT22;11658;48.908;9.140;2023-03-20T07:18:59;11.20;99.90
22984;DHT22;11658;48.908;9.140;2023-03-20T07:21:25;11.10;99.90
22984;DHT22;11658;48.908;9.140;2023-03-20T07:23:50;10.80;99.90
22984;DHT22;11658;48.908;9.140;2023-03-20T07:26:16;10.60;99.90
22984;DHT22;11658;48.908;9.140;2023-03-20T07:28:42;10.60;99.90
22984;DHT22;11658;48.908;9.140;2023-03-20T07:31:17;10.60;99.90
22984;DHT22;11658;48.908;9.140;2023-03-20T07:33:43;10.60;99.90
22984;DHT22;11658;48.908;9.140;2023-03-20T07:36:09;10.50;99.90
22984;DHT22;11658;48.908;9.140;2023-03-20T07:38:35;10.70;99.90
22984;DHT22;11658;48.908;9.140;2023-03-20T07:41:00;11.00;99.90
22984;DHT22;11658;48.908;9.140;2023-03-20T07:43:27;11.20;99.90
22984;DHT22;11658;48.908;9.140;2023-03-20T07:45:52;11.20;99.90
22984;DHT22;11658;48.908;9.140;2023-03-20T07:48:18;11.10;99.90
22984;DHT22;11658;48.908;9.140;2023-03-20T07:50:44;11.00;99.90
22984;DHT22;11658;48.908;9.140;2023-03-20T07:53:09;11.00;99.90
22984;DHT22;11658;48.908;9.140;2023-03-20T07:55:35;11.20;99.90
22984;DHT22;11658;48.908;9.140;2023-03-20T07:58:01;11.40;99.90
22984;DHT22;11658;48.908;9.140;2023-03-20T08:00:26;11.70;99.90
22984;DHT22;11658;48.908;9.140;2023-03-20T08:02:52;11.90;99.90
22984;DHT22;11658;48.908;9.140;2023-03-20T08:05:17;11.90;99.90
22984;DHT22;11658;48.908;9.140;2023-03-20T08:07:43;11.90;99.90
22984;DHT22;11658;48.908;9.140;2023-03-20T08:10:10;11.80;99.90
22984;DHT22;11658;48.908;9.140;2023-03-20T08:12:36;11.70;99.90
22984;DHT22;11658;48.908;9.140;2023-03-20T08:15:02;11.60;99.90
22984;DHT22;11658;48.908;9.140;2023-03-20T08:17:27;11.40;99.90
22984;DHT22;11658;48.908;9.140;2023-03-20T08:19:53;11.40;99.90
22984;DHT22;11658;48.908;9.140;2023-03-20T08:22:18;11.30;99.90
22984;DHT22;11658;48.908;9.140;2023-03-20T08:24:44;11.20;99.90
22984;DHT22;11658;48.908;9.140;2023-03-20T08:27:10;11.10;99.90
22984;DHT22;11658;48.908;9.140;2023-03-20T08:29:36;11.00;99.90
22984;DHT22;11658;48.908;9.140;2023-03-20T08:32:01;11.20;99.90
22984;DHT22;11658;48.908;9.140;2023-03-20T08:34:27;11.30;99.90
22984;DHT22;11658;48.908;9.140;2023-03-20T08:36:53;11.60;99.90
22984;DHT22;11658;48.908;9.140;2023-03-20T08:39:18;11.90;99.90
22984;DHT22;11658;48.908;9.140;2023-03-20T08:41:44;12.20;99.90
22984;DHT22;11658;48.908;9.140;2023-03-20T08:44:11;12.40;99.90
22984;DHT22;11658;48.908;9.140;2023-03-20T08:46:36;12.40;99.90
22984;DHT22;11658;48.908;9.140;2023-03-20T08:49:02;12.40;99.90
22984;DHT22;11658;48.908;9.140;2023-03-20T08:51:29;12.40;99.90
22984;DHT22;11658;48.908;9.140;2023-03-20T08:53:55;12.20;99.90
22984;DHT22;11658;48.908;9.140;2023-03-20T08:56:20;12.30;99.90
22984;DHT22;11658;48.908;9.140;2023-03-20T08:58:46;12.40;99.90
22984;DHT22;11658;48.908;9.140;2023-03-20T09:01:11;12.20;99.90
22984;DHT22;11658;48.908;9.140;2023-03-20T09:03:39;11.70;99.90
22984;DHT22;11658;48.908;9.140;2023-03-20T09:06:06;11.70;99.90
22984;DHT22;11658;48.908;9.140;2023-03-20T09:08:32;11.80;99.90
22984;DHT22;11658;48.908;9.140;2023-03-20T09:10:58;12.00;99.90
22984;DHT22;11658;48.908;9.140;2023-03-20T09:13:23;12.00;99.90
22984;DHT22;11658;48.908;9.140;2023-03-20T09:15:50;11.90;99.90
22984;DHT22;11658;48.908;9.140;2023-03-20T09:18:16;11.90;99.90
22984;DHT22;11658;48.908;9.140;2023-03-20T09:20:41;11.70;99.90
22984;DHT22;11658;48.908;9.140;2023-03-20T09:23:07;11.90;99.90
22984;DHT22;11658;48.908;9.140;2023-03-20T09:25:33;12.00;99.90
22984;DHT22;11658;48.908;9.140;2023-03-20T09:27:58;12.30;99.90
22984;DHT22;11658;48.908;9.140;2023-03-20T09:30:24;12.30;99.90
22984;DHT22;11658;48.908;9.140;2023-03-20T09:32:50;12.50;99.90
22984;DHT22;11658;48.908;9.140;2023-03-20T09:35:17;12.40;99.90
22984;DHT22;11658;48.908;9.140;2023-03-20T09:37:43;12.30;99.90
22984;DHT22;11658;48.908;9.140;2023-03-20T09:40:30;12.50;99.90
22984;DHT22;11658;48.908;9.140;2023-03-20T09:46:17;13.00;99.90
22984;DHT22;11658;48.908;9.140;2023-03-20T09:54:21;13.40;99.90
22984;DHT22;11658;48.908;9.140;2023-03-20T09:56:50;13.80;99.90
22984;DHT22;11658;48.908;9.140;2023-03-20T09:59:17;13.80;99.90
22984;DHT22;11658;48.908;9.140;2023-03-20T10:01:49;13.70;99.90
22984;DHT22;11658;48.908;9.140;2023-03-20T10:04:15;13.80;99.90
22984;DHT22;11658;48.908;9.140;2023-03-20T10:06:40;13.80;99.90
22984;DHT22;11658;48.908;9.140;2023-03-20T10:09:22;14.20;99.90
22984;DHT22;11658;48.908;9.140;2023-03-20T10:11:52;14.40;99.90
22984;DHT22;11658;48.908;9.140;2023-03-20T10:17:11;14.00;99.90
22984;DHT22;11658;48.908;9.140;2023-03-20T10:19:50;14.10;99.90
22984;DHT22;11658;48.908;9.140;2023-03-20T10:22:46;13.60;99.90
22984;DHT22;11658;48.908;9.140;2023-03-20T10:25:27;13.30;99.90
22984;DHT22;11658;48.908;9.140;2023-03-20T10:28:05;12.90;99.90
22984;DHT22;11658;48.908;9.140;2023-03-20T10:30:58;12.70;99.90
22984;DHT22;11658;48.908;9.140;2023-03-20T10:36:39;12.70;99.90
22984;DHT22;11658;48.908;9.140;2023-03-20T10:41:55;12.50;99.90
22984;DHT22;11658;48.908;9.140;2023-03-20T10:44:38;12.40;99.90
22984;DHT22;11658;48.908;9.140;2023-03-20T10:47:08;12.60;99.90
22984;DHT22;11658;48.908;9.140;2023-03-20T10:52:07;12.90;99.90
22984;DHT22;11658;48.908;9.140;2023-03-20T10:54:41;13.20;99.90
22984;DHT22;11658;48.908;9.140;2023-03-20T10:57:23;13.40;99.90
22984;DHT22;11658;48.908;9.140;2023-03-20T10:59:55;13.20;99.90
22984;DHT22;11658;48.908;9.140;2023-03-20T11:02:26;12.90;99.90
22984;DHT22;11658;48.908;9.140;2023-03-20T11:04:52;13.00;99.90
22984;DHT22;11658;48.908;9.140;2023-03-20T11:07:31;13.10;99.90
22984;DHT22;11658;48.908;9.140;2023-03-20T11:12:35;12.70;99.90
22984;DHT22;11658;48.908;9.140;2023-03-20T11:17:37;12.70;99.90
22984;DHT22;11658;48.908;9.140;2023-03-20T11:20:04;12.90;99.90
22984;DHT22;11658;48.908;9.140;2023-03-20T11:22:30;12.90;99.90
22984;DHT22;11658;48.908;9.140;2023-03-20T11:25:02;12.90;99.90
22984;DHT22;11658;48.908;9.140;2023-03-20T11:27:32;12.70;99.90
22984;DHT22;11658;48.908;9.140;2023-03-20T11:30:02;12.90;99.90
22984;DHT22;11658;48.908;9.140;2023-03-20T11:32:34;13.20;99.90
22984;DHT22;11658;48.908;9.140;2023-03-20T11:35:29;13.30;99.90
22984;DHT22;11658;48.908;9.140;2023-03-20T11:38:16;13.40;99.90
22984;DHT22;11658;48.908;9.140;2023-03-20T11:40:42;13.30;99.90
22984;DHT22;11658;48.908;9.140;2023-03-20T11:43:22;13.10;99.90
22984;DHT22;11658;48.908;9.140;2023-03-20T11:45:59;13.10;99.90
22984;DHT22;11658;48.908;9.140;2023-03-20T11:48:45;13.40;99.90
22984;DHT22;11658;48.908;9.140;2023-03-20T11:51:20;13.40;99.90
22984;DHT22;11658;48.908;9.140;2023-03-20T12:01:24;12.70;99.90
22984;DHT22;11658;48.908;9.140;2023-03-20T12:03:51;12.90;99.90
22984;DHT22;11658;48.908;9.140;2023-03-20T12:06:36;13.10;99.90
22984;DHT22;11658;48.908;9.140;2023-03-20T12:09:16;13.20;99.90
22984;DHT22;11658;48.908;9.140;2023-03-20T12:11:51;13.20;99.90
22984;DHT22;11658;48.908;9.140;2023-03-20T12:17:13;12.90;99.90
22984;DHT22;11658;48.908;9.140;2023-03-20T12:19:43;13.00;99.90
22984;DHT22;11658;48.908;9.140;2023-03-20T12:22:25;13.00;99.90
22984;DHT22;11658;48.908;9.140;2023-03-20T12:24:55;13.40;99.90
22984;DHT22;11658;48.908;9.140;2023-03-20T12:27:30;13.60;99.90
22984;DHT22;11658;48.908;9.140;2023-03-20T12:30:12;13.80;99.90
22984;DHT22;11658;48.908;9.140;2023-03-20T12:32:46;13.90;99.90
22984;DHT22;11658;48.908;9.140;2023-03-20T12:35:26;13.70;99.90
22984;DHT22;11658;48.908;9.140;2023-03-20T12:37:52;13.80;99.90
22984;DHT22;11658;48.908;9.140;2023-03-20T12:40:20;13.80;99.90
22984;DHT22;11658;48.908;9.140;2023-03-20T12:45:24;13.60;99.90
22984;DHT22;11658;48.908;9.140;2023-03-20T12:50:45;14.00;99.90
22984;DHT22;11658;48.908;9.140;2023-03-20T12:58:55;13.60;99.90
22984;DHT22;11658;48.908;9.140;2023-03-20T13:01:30;14.20;99.90
22984;DHT22;11658;48.908;9.140;2023-03-20T13:14:37;14.70;99.90
22984;DHT22;11658;48.908;9.140;2023-03-20T13:34:11;15.10;99.90
22984;DHT22;11658;48.908;9.140;2023-03-20T13:37:06;14.80;99.90
22984;DHT22;11658;48.908;9.140;2023-03-20T13:39:41;14.70;99.90
22984;DHT22;11658;48.908;9.140;2023-03-20T13:42:13;14.80;99.90
22984;DHT22;11658;48.908;9.140;2023-03-20T13:44:40;15.00;99.90
22984;DHT22;11658;48.908;9.140;2023-03-20T13:47:14;14.90;99.90
22984;DHT22;11658;48.908;9.140;2023-03-20T13:50:46;14.60;99.90
22984;DHT22;11658;48.908;9.140;2023-03-20T13:52:51;14.00;99.90
22984;DHT22;11658;48.908;9.140;2023-03-20T13:55:30;14.10;99.90
22984;DHT22;11658;48.908;9.140;2023-03-20T14:03:37;14.40;99.90
22984;DHT22;11658;48.908;9.140;2023-03-20T14:08:56;14.30;99.90
22984;DHT22;11658;48.908;9.140;2023-03-20T14:13:56;14.10;99.90
22984;DHT22;11658;48.908;9.140;2023-03-20T14:16:22;14.20;99.90
22984;DHT22;11658;48.908;9.140;2023-03-20T14:19:07;14.50;99.90
22984;DHT22;11658;48.908;9.140;2023-03-20T14:21:38;14.50;99.90
22984;DHT22;11658;48.908;9.140;2023-03-20T14:24:05;14.50;99.90
22984;DHT22;11658;48.908;9.140;2023-03-20T14:26:37;14.50;99.90
22984;DHT22;11658;48.908;9.140;2023-03-20T14:31:36;14.40;99.90
22984;DHT22;11658;48.908;9.140;2023-03-20T14:37:03;14.70;99.90
22984;DHT22;11658;48.908;9.140;2023-03-20T14:42:36;14.70;99.90
22984;DHT22;11658;48.908;9.140;2023-03-20T15:01:06;13.50;99.90
22984;DHT22;11658;48.908;9.140;2023-03-20T15:03:33;13.60;99.90
22984;DHT22;11658;48.908;9.140;2023-03-20T15:06:04;13.90;99.90
22984;DHT22;11658;48.908;9.140;2023-03-20T15:08:33;13.80;99.90
22984;DHT22;11658;48.908;9.140;2023-03-20T15:11:05;14.00;99.90
22984;DHT22;11658;48.908;9.140;2023-03-20T15:13:34;14.00;99.90
22984;DHT22;11658;48.908;9.140;2023-03-20T15:16:06;14.20;99.90
22984;DHT22;11658;48.908;9.140;2023-03-20T15:18:39;14.20;99.90
22984;DHT22;11658;48.908;9.140;2023-03-20T15:21:14;14.20;99.90
22984;DHT22;11658;48.908;9.140;2023-03-20T15:23:41;14.10;99.90
22984;DHT22;11658;48.908;9.140;2023-03-20T15:26:07;13.90;99.90
22984;DHT22;11658;48.908;9.140;2023-03-20T15:28:33;13.80;99.90
22984;DHT22;11658;48.908;9.140;2023-03-20T15:31:02;13.70;99.90
22984;DHT22;11658;48.908;9.140;2023-03-20T15:33:32;13.60;99.90
22984;DHT22;11658;48.908;9.140;2023-03-20T15:36:07;13.60;99.90
22984;DHT22;11658;48.908;9.140;2023-03-20T15:38:33;13.60;99.90
22984;DHT22;11658;48.908;9.140;2023-03-20T15:41:03;13.60;99.90
22984;DHT22;11658;48.908;9.140;2023-03-20T15:43:29;13.60;99.90
22984;DHT22;11658;48.908;9.140;2023-03-20T15:45:56;13.60;99.90
22984;DHT22;11658;48.908;9.140;2023-03-20T15:48:23;13.50;99.90
22984;DHT22;11658;48.908;9.140;2023-03-20T15:51:01;13.40;99.90
22984;DHT22;11658;48.908;9.140;2023-03-20T15:53:35;13.20;99.90
22984;DHT22;11658;48.908;9.140;2023-03-20T15:56:27;13.20;99.90
22984;DHT22;11658;48.908;9.140;2023-03-20T15:58:54;13.20;99.90
22984;DHT22;11658;48.908;9.140;2023-03-20T16:01:23;13.30;99.90
22984;DHT22;11658;48.908;9.140;2023-03-20T16:03:50;13.20;99.90
22984;DHT22;11658;48.908;9.140;2023-03-20T16:06:19;13.30;99.90
22984;DHT22;11658;48.908;9.140;2023-03-20T16:08:55;13.20;99.90
22984;DHT22;11658;48.908;9.140;2023-03-20T16:11:21;13.30;99.90
22984;DHT22;11658;48.908;9.140;2023-03-20T16:13:47;13.30;99.90
22984;DHT22;11658;48.908;9.140;2023-03-20T16:16:19;13.10;99.90
22984;DHT22;11658;48.908;9.140;2023-03-20T16:18:46;13.00;99.90
22984;DHT22;11658;48.908;9.140;2023-03-20T16:21:23;12.90;99.90
22984;DHT22;11658;48.908;9.140;2023-03-20T16:23:53;13.00;99.90
22984;DHT22;11658;48.908;9.140;2023-03-20T16:26:21;13.00;99.90
22984;DHT22;11658;48.908;9.140;2023-03-20T16:28:55;12.90;99.90
22984;DHT22;11658;48.908;9.140;2023-03-20T16:31:30;12.80;99.90
22984;DHT22;11658;48.908;9.140;2023-03-20T16:34:00;12.80;99.90
22984;DHT22;11658;48.908;9.140;2023-03-20T16:36:29;12.70;99.90
22984;DHT22;11658;48.908;9.140;2023-03-20T16:41:35;12.60;99.90
22984;DHT22;11658;48.908;9.140;2023-03-20T16:44:09;12.60;99.90
22984;DHT22;11658;48.908;9.140;2023-03-20T16:46:37;12.40;99.90
22984;DHT22;11658;48.908;9.140;2023-03-20T16:52:03;12.20;99.90
22984;DHT22;11658;48.908;9.140;2023-03-20T16:54:31;12.20;99.90
22984;DHT22;11658;48.908;9.140;2023-03-20T16:56:58;12.20;99.90
22984;DHT22;11658;48.908;9.140;2023-03-20T16:59:25;12.30;99.90
22984;DHT22;11658;48.908;9.140;2023-03-20T17:01:51;12.20;99.90
22984;DHT22;11658;48.908;9.140;2023-03-20T17:04:35;12.10;99.90
22984;DHT22;11658;48.908;9.140;2023-03-20T17:07:12;12.00;99.90
22984;DHT22;11658;48.908;9.140;2023-03-20T17:12:25;11.90;99.90
22984;DHT22;11658;48.908;9.140;2023-03-20T17:14:52;11.80;99.90
22984;DHT22;11658;48.908;9.140;2023-03-20T17:17:21;11.80;99.90
22984;DHT22;11658;48.908;9.140;2023-03-20T17:19:50;11.80;99.90
22984;DHT22;11658;48.908;9.140;2023-03-20T17:22:22;11.70;99.90
22984;DHT22;11658;48.908;9.140;2023-03-20T17:24:48;11.70;99.90
22984;DHT22;11658;48.908;9.140;2023-03-20T17:27:15;11.70;99.90
22984;DHT22;11658;48.908;9.140;2023-03-20T17:29:43;11.70;99.90
22984;DHT22;11658;48.908;9.140;2023-03-20T17:32:14;11.60;99.90
22984;DHT22;11658;48.908;9.140;2023-03-20T17:34:41;11.60;99.90
22984;DHT22;11658;48.908;9.140;2023-03-20T17:37:12;11.60;99.90
22984;DHT22;11658;48.908;9.140;2023-03-20T17:39:39;11.60;99.90
22984;DHT22;11658;48.908;9.140;2023-03-20T17:42:18;11.60;99.90
22984;DHT22;11658;48.908;9.140;2023-03-20T17:44:45;11.60;99.90
22984;DHT22;11658;48.908;9.140;2023-03-20T17:47:18;11.60;99.90
22984;DHT22;11658;48.908;9.140;2023-03-20T17:49:45;11.50;99.90
22984;DHT22;11658;48.908;9.140;2023-03-20T17:52:15;11.50;99.90
22984;DHT22;11658;48.908;9.140;2023-03-20T17:54:42;11.50;99.90
22984;DHT22;11658;48.908;9.140;2023-03-20T17:57:32;11.50;99.90
22984;DHT22;11658;48.908;9.140;2023-03-20T17:59:59;11.50;99.90
22984;DHT22;11658;48.908;9.140;2023-03-20T18:02:26;11.50;99.90
22984;DHT22;11658;48.908;9.140;2023-03-20T18:04:51;11.50;99.90
22984;DHT22;11658;48.908;9.140;2023-03-20T18:07:18;11.40;99.90
22984;DHT22;11658;48.908;9.140;2023-03-20T18:09:44;11.40;99.90
22984;DHT22;11658;48.908;9.140;2023-03-20T18:12:13;11.50;99.90
22984;DHT22;11658;48.908;9.140;2023-03-20T18:14:39;11.40;99.90
22984;DHT22;11658;48.908;9.140;2023-03-20T18:17:05;11.30;99.90
22984;DHT22;11658;48.908;9.140;2023-03-20T18:19:31;11.30;99.90
22984;DHT22;11658;48.908;9.140;2023-03-20T18:21:57;11.30;99.90
22984;DHT22;11658;48.908;9.140;2023-03-20T18:24:24;11.30;99.90
22984;DHT22;11658;48.908;9.140;2023-03-20T18:26:51;11.40;99.90
22984;DHT22;11658;48.908;9.140;2023-03-20T18:29:18;11.40;99.90
22984;DHT22;11658;48.908;9.140;2023-03-20T18:31:44;11.40;99.90
22984;DHT22;11658;48.908;9.140;2023-03-20T18:34:10;11.40;99.90
22984;DHT22;11658;48.908;9.140;2023-03-20T18:36:35;11.30;99.90
22984;DHT22;11658;48.908;9.140;2023-03-20T18:39:01;11.30;99.90
22984;DHT22;11658;48.908;9.140;2023-03-20T18:41:29;11.30;99.90
22984;DHT22;11658;48.908;9.140;2023-03-20T18:43:54;11.30;99.90
22984;DHT22;11658;48.908;9.140;2023-03-20T18:46:22;11.30;99.90
22984;DHT22;11658;48.908;9.140;2023-03-20T18:48:49;11.30;99.90
22984;DHT22;11658;48.908;9.140;2023-03-20T18:51:17;11.20;99.90
22984;DHT22;11658;48.908;9.140;2023-03-20T18:53:43;11.20;99.90
22984;DHT22;11658;48.908;9.140;2023-03-20T18:56:18;11.20;99.90
22984;DHT22;11658;48.908;9.140;2023-03-20T18:58:45;11.20;99.90
22984;DHT22;11658;48.908;9.140;2023-03-20T19:01:12;11.10;99.90
22984;DHT22;11658;48.908;9.140;2023-03-20T19:03:40;11.10;99.90
22984;DHT22;11658;48.908;9.140;2023-03-20T19:06:15;11.10;99.90
22984;DHT22;11658;48.908;9.140;2023-03-20T19:08:41;11.00;99.90
22984;DHT22;11658;48.908;9.140;2023-03-20T19:11:07;11.00;99.90
22984;DHT22;11658;48.908;9.140;2023-03-20T19:13:46;11.10;99.90
22984;DHT22;11658;48.908;9.140;2023-03-20T19:18:51;11.10;99.90
22984;DHT22;11658;48.908;9.140;2023-03-20T19:21:17;11.10;99.90
22984;DHT22;11658;48.908;9.140;2023-03-20T19:23:43;11.00;99.90
22984;DHT22;11658;48.908;9.140;2023-03-20T19:26:15;11.00;99.90
22984;DHT22;11658;48.908;9.140;2023-03-20T19:28:41;11.00;99.90
22984;DHT22;11658;48.908;9.140;2023-03-20T19:31:08;11.00;99.90
22984;DHT22;11658;48.908;9.140;2023-03-20T19:33:35;11.00;99.90
22984;DHT22;11658;48.908;9.140;2023-03-20T19:36:01;10.90;99.90
22984;DHT22;11658;48.908;9.140;2023-03-20T19:38:27;10.90;99.90
22984;DHT22;11658;48.908;9.140;2023-03-20T19:40:53;10.90;99.90
22984;DHT22;11658;48.908;9.140;2023-03-20T19:43:20;11.00;99.90
22984;DHT22;11658;48.908;9.140;2023-03-20T19:45:46;11.00;99.90
22984;DHT22;11658;48.908;9.140;2023-03-20T19:48:32;11.00;99.90
22984;DHT22;11658;48.908;9.140;2023-03-20T19:50:58;11.00;99.90
22984;DHT22;11658;48.908;9.140;2023-03-20T19:53:25;11.00;99.90
22984;DHT22;11658;48.908;9.140;2023-03-20T19:55:53;11.00;99.90
22984;DHT22;11658;48.908;9.140;2023-03-20T19:58:19;11.10;99.90
22984;DHT22;11658;48.908;9.140;2023-03-20T20:00:45;11.10;99.90
22984;DHT22;11658;48.908;9.140;2023-03-20T20:03:22;11.10;99.90
22984;DHT22;11658;48.908;9.140;2023-03-20T20:05:50;11.10;99.90
22984;DHT22;11658;48.908;9.140;2023-03-20T20:08:17;11.00;99.90
22984;DHT22;11658;48.908;9.140;2023-03-20T20:10:50;11.10;99.90
22984;DHT22;11658;48.908;9.140;2023-03-20T20:13:19;11.10;99.90
22984;DHT22;11658;48.908;9.140;2023-03-20T20:15:46;11.10;99.90
22984;DHT22;11658;48.908;9.140;2023-03-20T20:18:13;11.00;99.90
22984;DHT22;11658;48.908;9.140;2023-03-20T20:20:39;11.00;99.90
22984;DHT22;11658;48.908;9.140;2023-03-20T20:23:08;10.90;99.90
22984;DHT22;11658;48.908;9.140;2023-03-20T20:25:34;10.90;99.90
22984;DHT22;11658;48.908;9.140;2023-03-20T20:27:59;10.80;99.90
22984;DHT22;11658;48.908;9.140;2023-03-20T20:30:25;10.80;99.90
22984;DHT22;11658;48.908;9.140;2023-03-20T20:32:52;10.70;99.90
22984;DHT22;11658;48.908;9.140;2023-03-20T20:35:17;10.70;99.90
22984;DHT22;11658;48.908;9.140;2023-03-20T20:37:44;10.70;99.90
22984;DHT22;11658;48.908;9.140;2023-03-20T20:40:13;10.70;99.90
22984;DHT22;11658;48.908;9.140;2023-03-20T20:42:39;10.70;99.90
22984;DHT22;11658;48.908;9.140;2023-03-20T20:45:08;10.70;99.90
22984;DHT22;11658;48.908;9.140;2023-03-20T20:47:34;10.70;99.90
22984;DHT22;11658;48.908;9.140;2023-03-20T20:50:00;10.60;99.90
22984;DHT22;11658;48.908;9.140;2023-03-20T20:52:29;10.60;99.90
22984;DHT22;11658;48.908;9.140;2023-03-20T20:54:55;10.60;99.90
22984;DHT22;11658;48.908;9.140;2023-03-20T20:57:20;10.60;99.90
22984;DHT22;11658;48.908;9.140;2023-03-20T20:59:46;10.60;99.90
22984;DHT22;11658;48.908;9.140;2023-03-20T21:02:12;10.50;99.90
22984;DHT22;11658;48.908;9.140;2023-03-20T21:04:40;10.60;99.90
22984;DHT22;11658;48.908;9.140;2023-03-20T21:07:09;10.60;99.90
22984;DHT22;11658;48.908;9.140;2023-03-20T21:09:35;10.60;99.90
22984;DHT22;11658;48.908;9.140;2023-03-20T21:12:01;10.70;99.90
22984;DHT22;11658;48.908;9.140;2023-03-20T21:14:27;10.70;99.90
22984;DHT22;11658;48.908;9.140;2023-03-20T21:16:53;10.70;99.90
22984;DHT22;11658;48.908;9.140;2023-03-20T21:19:26;10.80;99.90
22984;DHT22;11658;48.908;9.140;2023-03-20T21:21:52;10.80;99.90
22984;DHT22;11658;48.908;9.140;2023-03-20T21:24:18;10.80;99.90
22984;DHT22;11658;48.908;9.140;2023-03-20T21:26:43;10.70;99.90
22984;DHT22;11658;48.908;9.140;2023-03-20T21:29:10;10.70;99.90
22984;DHT22;11658;48.908;9.140;2023-03-20T21:31:36;10.80;99.90
22984;DHT22;11658;48.908;9.140;2023-03-20T21:34:02;10.80;99.90
22984;DHT22;11658;48.908;9.140;2023-03-20T21:36:30;10.80;99.90
22984;DHT22;11658;48.908;9.140;2023-03-20T21:38:56;10.80;99.90
22984;DHT22;11658;48.908;9.140;2023-03-20T21:41:22;10.80;99.90
22984;DHT22;11658;48.908;9.140;2023-03-20T21:43:48;10.80;99.90